createdAt,value
2019-03-18T00:01:13.952Z,78.43
2019-03-18T00:03:43.478Z,88.60
2019-03-18T00:06:13.000Z,95.43
2019-03-18T00:08:42.642Z,88.75
2019-03-18T00:11:12.353Z,83.17
2019-03-18T00:13:41.883Z,82.30
2019-03-18T00:16:11.426Z,85.67
2019-03-18T00:18:41.035Z,75.20
2019-03-18T00:21:10.564Z,73.33
2019-03-18T00:23:40.294Z,71.13
2019-03-18T00:26:09.820Z,54.27
2019-03-18T00:28:39.446Z,58.48
2019-03-18T00:31:08.978Z,51.13
2019-03-18T00:33:38.494Z,50.80
2019-03-18T00:36:08.137Z,55.27
2019-03-18T00:38:37.661Z,49.48
2019-03-18T00:41:07.189Z,56.33
2019-03-18T00:43:36.703Z,52.23
2019-03-18T00:46:06.222Z,47.97
2019-03-18T00:48:35.860Z,49.97
2019-03-18T00:51:05.375Z,47.75
2019-03-18T00:53:34.997Z,45.20
2019-03-18T00:56:04.736Z,48.15
2019-03-18T00:58:34.363Z,61.00
2019-03-18T01:01:04.297Z,82.37
2019-03-18T01:03:33.827Z,62.15
2019-03-18T01:06:03.456Z,64.55
2019-03-18T01:08:33.487Z,57.75
2019-03-18T01:11:03.248Z,61.25
2019-03-18T01:13:32.841Z,58.48
2019-03-18T01:16:02.684Z,53.98
2019-03-18T01:18:32.305Z,55.15
2019-03-18T01:21:03.166Z,52.58
2019-03-18T01:23:32.903Z,50.28
2019-03-18T01:26:02.519Z,55.78
2019-03-18T01:28:32.247Z,53.58
2019-03-18T01:31:01.986Z,53.13
2019-03-18T01:33:31.604Z,63.02
2019-03-18T01:36:01.341Z,52.10
2019-03-18T01:38:30.857Z,46.42
2019-03-18T01:41:00.608Z,47.77
2019-03-18T01:43:30.322Z,51.20
2019-03-18T01:45:59.950Z,60.38
2019-03-18T01:48:29.580Z,64.95
2019-03-18T01:50:59.405Z,66.77
2019-03-18T01:53:28.978Z,64.55
2019-03-18T01:55:58.559Z,61.43
2019-03-18T01:58:28.396Z,46.83
2019-03-18T02:00:58.228Z,53.73
2019-03-18T02:03:27.864Z,65.47
2019-03-18T02:05:57.619Z,61.75
2019-03-18T02:08:27.225Z,61.48
2019-03-18T02:10:56.748Z,73.50
2019-03-18T02:13:27.597Z,65.47
2019-03-18T02:15:57.216Z,65.30
2019-03-18T02:18:26.850Z,50.65
2019-03-18T02:20:56.483Z,68.35
2019-03-18T02:23:26.111Z,62.80
2019-03-18T02:25:55.728Z,81.02
2019-03-18T02:28:25.675Z,79.72
2019-03-18T02:30:55.262Z,73.40
2019-03-18T02:33:25.947Z,67.85
2019-03-18T02:35:55.886Z,69.62
2019-03-18T02:38:25.627Z,65.70
2019-03-18T02:40:55.192Z,67.95
2019-03-18T02:43:24.977Z,65.10
2019-03-18T02:46:09.354Z,68.90
2019-03-18T02:48:26.343Z,61.25
2019-03-18T02:50:56.096Z,62.00
2019-03-18T02:53:25.830Z,65.50
2019-03-18T02:55:55.561Z,63.02
2019-03-18T02:58:25.227Z,65.95
2019-03-18T03:00:54.813Z,72.87
2019-03-18T03:03:24.657Z,76.15
2019-03-18T03:05:54.612Z,85.95
2019-03-18T03:08:24.370Z,87.25
2019-03-18T03:10:54.354Z,77.40
2019-03-18T03:13:23.970Z,70.35
2019-03-18T03:15:53.619Z,70.60
2019-03-18T03:18:23.450Z,69.20
2019-03-18T03:20:53.069Z,64.77
2019-03-18T03:23:22.636Z,58.73
2019-03-18T03:25:52.421Z,54.83
2019-03-18T03:28:22.069Z,62.88
2019-03-18T03:30:51.680Z,59.13
2019-03-18T03:33:21.411Z,58.08
2019-03-18T03:35:51.052Z,59.85
2019-03-18T03:38:20.865Z,63.48
2019-03-18T03:40:50.802Z,67.27
2019-03-18T03:43:20.325Z,63.05
2019-03-18T03:45:49.945Z,62.15
2019-03-18T03:48:19.890Z,65.87
2019-03-18T03:50:49.625Z,69.45
2019-03-18T03:53:19.150Z,69.25
2019-03-18T03:55:48.975Z,74.97
2019-03-18T03:58:18.814Z,74.80
2019-03-18T04:00:48.459Z,75.20
2019-03-18T04:03:18.268Z,81.10
2019-03-18T04:05:48.022Z,94.42
2019-03-18T04:08:17.731Z,96.08
2019-03-18T04:10:47.464Z,87.67
2019-03-18T04:13:17.084Z,83.92
2019-03-18T04:15:46.723Z,89.28
2019-03-18T04:18:16.341Z,97.40
2019-03-18T04:20:45.969Z,93.97
2019-03-18T04:23:15.717Z,85.90
2019-03-18T04:25:45.421Z,80.90
2019-03-18T04:28:15.068Z,80.53
2019-03-18T04:30:44.701Z,80.97
2019-03-18T04:33:14.414Z,86.22
2019-03-18T04:35:44.015Z,86.60
2019-03-18T04:38:13.770Z,104.15
2019-03-18T04:40:45.026Z,104.07
2019-03-18T04:43:14.659Z,111.72
2019-03-18T04:45:44.221Z,116.25
2019-03-18T04:48:14.946Z,141.97
2019-03-18T04:50:44.467Z,170.53
2019-03-18T04:53:14.190Z,155.77
2019-03-18T04:55:44.035Z,129.38
2019-03-18T04:58:13.779Z,109.65
2019-03-18T05:00:43.388Z,95.77
2019-03-18T05:03:13.217Z,94.37
2019-03-18T05:05:42.949Z,92.25
2019-03-18T05:08:12.577Z,88.87
2019-03-18T05:10:42.618Z,160.20
2019-03-18T05:13:12.511Z,88.70
2019-03-18T05:15:42.302Z,107.15
2019-03-18T05:18:12.514Z,97.92
2019-03-18T05:20:42.247Z,60.70
2019-03-18T05:23:11.972Z,57.98
2019-03-18T05:25:41.916Z,58.78
2019-03-18T05:28:11.748Z,57.58
2019-03-18T05:30:41.472Z,55.73
2019-03-18T05:33:11.204Z,54.45
2019-03-18T05:35:42.572Z,51.55
2019-03-18T05:38:12.518Z,46.90
2019-03-18T05:40:42.224Z,47.73
2019-03-18T05:43:11.969Z,47.05
2019-03-18T05:45:41.686Z,43.63
2019-03-18T05:48:11.323Z,51.23
2019-03-18T05:50:40.957Z,44.10
2019-03-18T05:53:10.593Z,44.27
2019-03-18T05:55:40.303Z,43.67
2019-03-18T05:58:09.834Z,44.57
2019-03-18T06:00:39.764Z,42.20
2019-03-18T06:03:09.505Z,40.45
2019-03-18T06:05:39.117Z,36.27
2019-03-18T06:08:11.514Z,36.45
2019-03-18T06:10:40.422Z,31.90
2019-03-18T06:13:10.973Z,30.05
2019-03-18T06:15:40.715Z,29.10
2019-03-18T06:18:10.431Z,26.15
2019-03-18T06:20:40.260Z,26.75
2019-03-18T06:23:09.992Z,25.92
2019-03-18T06:25:39.744Z,23.07
2019-03-18T06:28:10.709Z,23.38
2019-03-18T06:30:40.518Z,24.35
2019-03-18T06:33:10.349Z,30.23
2019-03-18T06:35:40.184Z,23.05
2019-03-18T06:38:10.926Z,23.25
2019-03-18T06:40:40.663Z,25.52
2019-03-18T06:43:10.286Z,25.83
2019-03-18T06:45:40.132Z,26.15
2019-03-18T06:48:09.754Z,26.77
2019-03-18T06:50:39.599Z,26.48
2019-03-18T06:53:09.230Z,28.45
2019-03-18T06:55:38.948Z,26.23
2019-03-18T06:58:08.676Z,25.52
2019-03-18T07:00:38.397Z,25.55
2019-03-18T07:03:08.028Z,26.77
2019-03-18T07:05:37.920Z,28.03
2019-03-18T07:08:07.923Z,29.32
2019-03-18T07:10:37.425Z,30.12
2019-03-18T07:13:07.050Z,30.10
2019-03-18T07:15:36.682Z,29.43
2019-03-18T07:18:17.625Z,31.17
2019-03-18T07:20:38.279Z,33.08
2019-03-18T07:23:07.913Z,36.80
2019-03-18T07:25:37.687Z,41.10
2019-03-18T07:28:07.318Z,32.25
2019-03-18T07:30:38.642Z,34.08
2019-03-18T07:33:08.364Z,35.35
2019-03-18T07:35:38.096Z,28.47
2019-03-18T07:38:08.853Z,29.15
2019-03-18T07:40:38.675Z,37.33
2019-03-18T07:43:08.418Z,40.98
2019-03-18T07:45:38.044Z,40.87
2019-03-18T07:48:07.665Z,27.67
2019-03-18T07:53:07.356Z,16.45
2019-03-18T07:55:37.472Z,16.70
2019-03-18T07:58:07.205Z,18.80
2019-03-18T08:00:36.832Z,16.53
2019-03-18T08:03:06.777Z,17.55
2019-03-18T08:05:36.389Z,16.57
2019-03-18T08:08:06.161Z,14.75
2019-03-18T08:10:35.852Z,14.23
2019-03-18T08:13:05.401Z,15.00
2019-03-18T08:18:06.570Z,16.97
2019-03-18T08:20:36.225Z,15.38
2019-03-18T08:23:05.852Z,14.00
2019-03-18T08:25:35.398Z,12.00
2019-03-18T08:28:05.308Z,12.90
2019-03-18T08:30:35.126Z,12.98
2019-03-18T08:33:04.855Z,12.10
2019-03-18T08:35:34.789Z,13.93
2019-03-18T08:38:04.413Z,16.55
2019-03-18T08:40:34.176Z,18.50
2019-03-18T08:43:03.878Z,17.77
2019-03-18T08:45:33.605Z,13.83
2019-03-18T08:48:03.238Z,8.98
2019-03-18T08:50:33.035Z,10.50
2019-03-18T08:53:02.820Z,12.85
2019-03-18T08:55:33.669Z,13.10
2019-03-18T08:58:03.377Z,11.18
2019-03-18T09:00:33.119Z,10.88
2019-03-18T09:03:02.693Z,11.67
2019-03-18T09:05:32.574Z,12.77
2019-03-18T09:08:03.083Z,13.32
2019-03-18T09:13:01.917Z,8.98
2019-03-18T09:15:31.809Z,8.03
2019-03-18T09:18:02.468Z,9.10
2019-03-18T09:20:32.067Z,7.10
2019-03-18T09:23:01.854Z,6.83
2019-03-18T09:25:31.942Z,6.97
2019-03-18T09:28:01.640Z,7.05
2019-03-18T09:30:31.307Z,6.17
2019-03-18T09:33:01.039Z,8.45
2019-03-18T09:35:30.560Z,5.92
2019-03-18T09:38:00.294Z,5.93
2019-03-18T09:40:30.020Z,6.92
2019-03-18T09:42:59.749Z,7.83
2019-03-18T09:45:29.384Z,7.00
2019-03-18T09:47:59.218Z,6.63
2019-03-18T09:50:28.838Z,6.50
2019-03-18T09:52:58.532Z,5.90
2019-03-18T09:55:28.499Z,6.05
2019-03-18T09:57:58.157Z,6.70
2019-03-18T10:00:27.975Z,6.47
2019-03-18T10:02:57.642Z,5.12
2019-03-18T10:05:27.220Z,5.42
2019-03-18T10:07:57.400Z,5.23
2019-03-18T10:10:27.104Z,6.42
2019-03-18T10:12:56.815Z,5.85
2019-03-18T10:15:26.657Z,7.00
2019-03-18T10:17:56.477Z,5.60
2019-03-18T10:20:26.220Z,6.55
2019-03-18T10:22:55.945Z,6.15
2019-03-18T10:25:25.670Z,5.97
2019-03-18T10:27:55.311Z,6.45
2019-03-18T10:30:24.931Z,6.50
2019-03-18T10:32:54.669Z,6.30
2019-03-18T10:35:24.305Z,14.43
2019-03-18T10:37:53.916Z,7.50
2019-03-18T10:40:24.259Z,7.22
2019-03-18T10:42:53.788Z,8.50
2019-03-18T10:45:25.867Z,7.20
2019-03-18T10:47:55.194Z,7.12
2019-03-18T10:50:24.821Z,6.55
2019-03-18T10:52:54.567Z,5.80
2019-03-18T10:55:24.386Z,6.05
2019-03-18T10:57:54.252Z,5.05
2019-03-18T11:00:24.628Z,5.55
2019-03-18T11:05:25.148Z,5.47
2019-03-18T11:07:54.785Z,5.30
2019-03-18T11:10:24.607Z,4.92
2019-03-18T11:12:54.234Z,5.35
2019-03-18T11:15:23.999Z,6.50
2019-03-18T11:17:53.694Z,6.10
2019-03-18T11:20:23.330Z,6.20
2019-03-18T11:22:53.167Z,5.37
2019-03-18T11:25:22.784Z,5.47
2019-03-18T11:27:52.401Z,5.62
2019-03-18T11:30:22.150Z,5.45
2019-03-18T11:32:51.974Z,5.30
2019-03-18T11:35:21.625Z,6.12
2019-03-18T11:37:51.942Z,5.60
2019-03-18T11:40:22.247Z,5.62
2019-03-18T11:45:21.036Z,4.97
2019-03-18T11:47:50.872Z,4.78
2019-03-18T11:50:20.832Z,4.20
2019-03-18T11:52:50.426Z,5.17
2019-03-18T11:55:27.422Z,4.10
2019-03-18T11:57:57.055Z,4.72
2019-03-18T12:00:27.293Z,4.90
2019-03-18T12:02:57.322Z,6.53
2019-03-18T12:05:28.285Z,5.62
2019-03-18T12:07:57.917Z,6.05
2019-03-18T12:10:27.655Z,6.33
2019-03-18T12:12:58.389Z,6.10
2019-03-18T12:15:28.318Z,7.25
2019-03-18T12:17:57.751Z,5.80
2019-03-18T12:20:27.430Z,6.57
2019-03-18T12:22:57.132Z,7.77
2019-03-18T12:25:26.627Z,8.33
2019-03-18T12:27:56.267Z,8.67
2019-03-18T12:30:27.324Z,12.07
2019-03-18T12:32:56.849Z,7.53
2019-03-18T12:35:26.579Z,7.97
2019-03-18T12:37:56.099Z,8.10
2019-03-18T12:40:25.797Z,8.80
2019-03-18T12:42:55.459Z,7.70
2019-03-18T12:45:25.113Z,7.53
2019-03-18T12:47:54.620Z,8.37
2019-03-18T12:50:55.192Z,7.42
2019-03-18T12:52:58.795Z,9.33
2019-03-18T12:55:28.626Z,10.10
2019-03-18T12:57:58.299Z,8.60
2019-03-18T13:00:30.030Z,11.18
2019-03-18T13:02:59.744Z,9.63
2019-03-18T13:05:29.462Z,6.95
2019-03-18T13:07:59.316Z,6.45
2019-03-18T13:10:29.153Z,8.65
2019-03-18T13:12:58.891Z,9.80
2019-03-18T13:15:28.602Z,8.55
2019-03-18T13:17:58.233Z,9.05
2019-03-18T13:20:28.278Z,7.83
2019-03-18T13:22:58.010Z,8.83
2019-03-18T13:25:28.859Z,13.13
2019-03-18T13:27:58.583Z,8.13
2019-03-18T13:30:28.311Z,8.15
2019-03-18T13:32:58.052Z,9.23
2019-03-18T13:35:27.671Z,9.13
2019-03-18T13:37:57.309Z,7.43
2019-03-18T13:40:27.141Z,7.70
2019-03-18T13:42:56.987Z,8.38
2019-03-18T13:45:26.691Z,8.08
2019-03-18T13:47:56.316Z,8.35
2019-03-18T13:50:26.259Z,8.47
2019-03-18T13:52:55.980Z,8.98
2019-03-18T13:55:25.727Z,7.97
2019-03-18T13:57:55.554Z,8.68
2019-03-18T14:00:25.394Z,8.48
2019-03-18T14:02:55.109Z,7.78
2019-03-18T14:05:25.162Z,9.03
2019-03-18T14:08:00.948Z,8.43
2019-03-18T14:10:26.482Z,7.87
2019-03-18T14:12:56.191Z,7.40
2019-03-18T14:15:26.127Z,6.93
2019-03-18T14:17:55.983Z,7.55
2019-03-18T14:20:26.768Z,6.87
2019-03-18T14:22:56.547Z,6.20
2019-03-18T14:25:26.589Z,6.28
2019-03-18T14:27:56.311Z,7.03
2019-03-18T14:30:27.360Z,6.53
2019-03-18T14:32:57.301Z,7.12
2019-03-18T14:35:26.925Z,6.05
2019-03-18T14:37:58.290Z,6.63
2019-03-18T14:40:28.141Z,6.87
2019-03-18T14:42:58.979Z,6.40
2019-03-18T14:45:29.936Z,6.17
2019-03-18T14:47:59.679Z,6.35
2019-03-18T14:50:30.930Z,6.37
2019-03-18T14:53:00.665Z,5.72
2019-03-18T14:55:30.390Z,5.72
2019-03-18T14:58:00.266Z,6.07
2019-03-18T15:00:30.274Z,5.67
2019-03-18T15:02:59.991Z,6.10
2019-03-18T15:05:29.591Z,5.47
2019-03-18T15:07:59.457Z,5.43
2019-03-18T15:10:30.207Z,6.10
2019-03-18T15:15:30.379Z,6.53
2019-03-18T15:18:00.226Z,6.47
2019-03-18T15:20:30.149Z,6.03
2019-03-18T15:23:01.832Z,5.97
2019-03-18T15:25:36.219Z,6.05
2019-03-18T15:28:05.992Z,6.83
2019-03-18T15:30:35.732Z,7.00
2019-03-18T15:33:05.348Z,7.63
2019-03-18T15:35:34.972Z,8.20
2019-03-18T15:38:07.166Z,8.50
2019-03-18T15:40:36.996Z,7.72
2019-03-18T15:43:06.836Z,10.08
2019-03-18T15:45:36.568Z,13.83
2019-03-18T15:48:06.292Z,13.05
2019-03-18T15:50:36.123Z,12.37
2019-03-18T15:53:05.966Z,18.57
2019-03-18T15:55:35.688Z,34.33
2019-03-18T15:58:05.420Z,41.42
2019-03-18T16:00:35.140Z,56.23
2019-03-18T16:03:04.871Z,72.70
2019-03-18T16:05:34.396Z,42.37
2019-03-18T16:08:04.033Z,24.45
2019-03-18T16:10:33.965Z,24.72
2019-03-18T16:13:04.843Z,17.30
2019-03-18T16:15:34.651Z,18.82
2019-03-18T16:18:04.495Z,15.48
2019-03-18T16:20:34.211Z,16.05
2019-03-18T16:23:03.978Z,15.20
2019-03-18T16:25:33.820Z,17.50
2019-03-18T16:28:03.614Z,18.20
2019-03-18T16:30:33.443Z,18.37
2019-03-18T16:33:03.523Z,19.53
2019-03-18T16:35:33.313Z,24.37
2019-03-18T16:38:03.141Z,26.27
2019-03-18T16:40:33.224Z,25.85
2019-03-18T16:43:03.108Z,20.05
2019-03-18T16:45:34.268Z,24.77
2019-03-18T16:48:04.006Z,20.07
2019-03-18T16:50:33.645Z,21.33
2019-03-18T16:53:03.488Z,19.33
2019-03-18T16:55:35.639Z,19.75
2019-03-18T16:58:07.326Z,18.90
2019-03-18T17:00:37.059Z,19.32
2019-03-18T17:03:06.795Z,20.45
2019-03-18T17:05:36.609Z,18.12
2019-03-18T17:08:06.472Z,21.10
2019-03-18T17:10:36.191Z,23.02
2019-03-18T17:13:05.908Z,24.73
2019-03-18T17:15:35.679Z,20.17
2019-03-18T17:18:05.709Z,16.82
2019-03-18T17:20:35.516Z,16.52
2019-03-18T17:23:05.247Z,18.48
2019-03-18T17:25:36.130Z,21.55
2019-03-18T17:28:05.816Z,25.43
2019-03-18T17:30:35.974Z,25.77
2019-03-18T17:33:05.822Z,25.10
2019-03-18T17:35:35.640Z,22.07
2019-03-18T17:38:05.467Z,21.60
2019-03-18T17:40:35.311Z,22.90
2019-03-18T17:43:04.914Z,18.62
2019-03-18T17:45:34.549Z,17.92
2019-03-18T17:48:04.491Z,14.97
2019-03-18T17:50:35.248Z,17.27
2019-03-18T17:53:05.170Z,18.50
2019-03-18T17:55:35.005Z,16.40
2019-03-18T17:58:04.750Z,19.27
2019-03-18T18:00:45.200Z,18.80
2019-03-18T18:03:16.937Z,19.77
2019-03-18T18:05:46.701Z,18.00
2019-03-18T18:08:18.312Z,20.82
2019-03-18T18:10:47.828Z,21.65
2019-03-18T18:13:17.629Z,22.40
2019-03-18T18:15:47.579Z,35.43
2019-03-18T18:18:17.410Z,37.17
2019-03-18T18:20:47.131Z,46.58
2019-03-18T18:23:16.865Z,30.27
2019-03-18T18:25:46.930Z,26.95
2019-03-18T18:28:16.732Z,25.85
2019-03-18T18:30:46.469Z,25.53
2019-03-18T18:33:16.407Z,24.70
2019-03-18T18:35:46.257Z,23.70
2019-03-18T18:38:16.058Z,19.80
2019-03-18T18:40:45.791Z,20.12
2019-03-18T18:43:15.461Z,21.40
2019-03-18T18:45:45.160Z,20.73
2019-03-18T18:48:17.022Z,21.13
2019-03-18T18:50:46.764Z,24.12
2019-03-18T18:53:26.047Z,20.08
2019-03-18T18:55:49.100Z,17.37
2019-03-18T18:58:18.806Z,17.40
2019-03-18T19:00:48.553Z,18.77
2019-03-18T19:03:18.191Z,16.10
2019-03-18T19:05:48.320Z,15.80
2019-03-18T19:08:18.138Z,16.87
2019-03-18T19:10:47.710Z,15.93
2019-03-18T19:13:17.861Z,16.80
2019-03-18T19:15:48.833Z,17.32
2019-03-18T19:18:18.712Z,16.90
2019-03-18T19:20:48.317Z,18.17
2019-03-18T19:23:19.495Z,18.47
2019-03-18T19:25:49.228Z,19.50
2019-03-18T19:28:18.962Z,19.07
2019-03-18T19:30:48.791Z,19.92
2019-03-18T19:33:18.733Z,18.52
2019-03-18T19:35:48.550Z,19.73
2019-03-18T19:38:18.696Z,18.42
2019-03-18T19:40:48.532Z,18.48
2019-03-18T19:43:18.466Z,20.88
2019-03-18T19:45:48.217Z,22.02
2019-03-18T19:48:18.016Z,24.52
2019-03-18T19:50:48.000Z,22.52
2019-03-18T19:53:17.715Z,21.65
2019-03-18T19:55:47.617Z,22.40
2019-03-18T19:58:17.354Z,24.30
2019-03-18T20:00:47.070Z,25.32
2019-03-18T20:03:18.210Z,24.60
2019-03-18T20:05:48.070Z,27.07
2019-03-18T20:08:17.704Z,28.38
2019-03-18T20:10:47.530Z,29.17
2019-03-18T20:13:17.481Z,30.27
2019-03-18T20:15:48.741Z,30.10
2019-03-18T20:18:18.355Z,29.75
2019-03-18T20:20:48.114Z,28.90
2019-03-18T20:23:19.578Z,28.60
2019-03-18T20:25:50.408Z,29.67
2019-03-18T20:28:20.149Z,27.15
2019-03-18T20:33:20.736Z,25.05
2019-03-18T20:35:50.446Z,26.60
2019-03-18T20:38:20.119Z,27.35
2019-03-18T20:40:49.671Z,24.73
2019-03-18T20:45:49.475Z,23.62
2019-03-18T20:48:20.555Z,21.65
2019-03-18T20:50:50.181Z,21.30
2019-03-18T20:53:20.112Z,21.07
2019-03-18T20:55:49.710Z,19.73
2019-03-18T20:58:19.387Z,18.53
2019-03-18T21:00:49.099Z,18.70
2019-03-18T21:03:18.848Z,19.60
2019-03-18T21:05:48.556Z,20.52
2019-03-18T21:08:18.281Z,20.62
2019-03-18T21:10:49.751Z,19.73
2019-03-18T21:13:19.379Z,20.05
2019-03-18T21:15:49.060Z,20.95
2019-03-18T21:18:18.810Z,20.17
2019-03-18T21:20:48.464Z,21.02
2019-03-18T21:23:18.093Z,20.40
2019-03-18T21:25:48.022Z,21.87
2019-03-18T21:28:17.681Z,23.15
2019-03-18T21:30:47.380Z,21.05
2019-03-18T21:33:17.332Z,20.55
2019-03-18T21:35:47.056Z,20.30
2019-03-18T21:38:16.635Z,19.70
2019-03-18T21:40:46.316Z,18.93
2019-03-18T21:43:16.038Z,19.03
2019-03-18T21:45:45.775Z,18.27
2019-03-18T21:48:15.504Z,18.92
2019-03-18T21:50:45.233Z,19.12
2019-03-18T21:53:14.763Z,19.53
2019-03-18T21:55:44.585Z,20.00
2019-03-18T21:58:14.219Z,20.72
2019-03-18T22:00:43.947Z,20.23
2019-03-18T22:03:13.671Z,18.92
2019-03-18T22:05:43.307Z,16.82
2019-03-18T22:08:13.235Z,17.53
2019-03-18T22:10:42.964Z,20.70
2019-03-18T22:13:12.693Z,19.70
2019-03-18T22:15:42.327Z,16.37
2019-03-18T22:18:11.957Z,17.03
2019-03-18T22:20:42.699Z,16.32
2019-03-18T22:23:12.531Z,16.17
2019-03-18T22:25:42.105Z,18.23
2019-03-18T22:28:13.329Z,18.67
2019-03-18T22:30:43.061Z,17.15
2019-03-18T22:33:12.689Z,16.17
2019-03-18T22:35:43.024Z,16.50
2019-03-18T22:38:12.785Z,16.20
2019-03-18T22:40:42.595Z,15.15
2019-03-18T22:43:12.431Z,16.35
2019-03-18T22:45:42.155Z,15.60
2019-03-18T22:48:11.881Z,15.95
2019-03-18T22:50:41.631Z,13.93
2019-03-18T22:53:11.337Z,13.13
2019-03-18T22:55:41.087Z,13.72
2019-03-18T22:58:11.009Z,13.40
2019-03-18T23:00:47.597Z,14.87
2019-03-18T23:03:17.422Z,14.40
2019-03-18T23:05:47.262Z,14.18
2019-03-18T23:08:16.992Z,13.58
2019-03-18T23:10:46.725Z,13.18
2019-03-18T23:13:16.343Z,13.38
2019-03-18T23:15:46.072Z,13.80
2019-03-18T23:18:15.611Z,13.87
2019-03-18T23:20:45.240Z,12.75
2019-03-18T23:23:15.976Z,13.55
2019-03-18T23:25:45.613Z,13.28
2019-03-18T23:28:16.473Z,14.43
2019-03-18T23:30:46.095Z,14.10
2019-03-18T23:33:15.823Z,14.23
2019-03-18T23:35:45.767Z,14.03
2019-03-18T23:38:15.389Z,14.15
2019-03-18T23:40:45.020Z,14.03
2019-03-18T23:43:14.948Z,14.30
2019-03-18T23:45:44.681Z,15.28
2019-03-18T23:48:14.407Z,15.08
2019-03-18T23:50:44.248Z,15.50
2019-03-18T23:53:13.811Z,14.53
2019-03-18T23:58:15.065Z,14.65
